sensor_id;sensor_type;location;lat;lon;timestamp;P1;durP1;ratioP1;P2;durP2;ratioP2
26977;SDS011;56314;48.088;11.642;2024-03-07T00:00:35;14.18;;;9.77;;
26977;SDS011;56314;48.088;11.642;2024-03-07T00:03:01;13.30;;;9.35;;
26977;SDS011;56314;48.088;11.642;2024-03-07T00:05:27;12.50;;;9.07;;
26977;SDS011;56314;48.088;11.642;2024-03-07T00:07:53;12.40;;;8.98;;
26977;SDS011;56314;48.088;11.642;2024-03-07T00:10:18;13.25;;;9.10;;
26977;SDS011;56314;48.088;11.642;2024-03-07T00:12:46;13.65;;;8.85;;
26977;SDS011;56314;48.088;11.642;2024-03-07T00:15:13;12.13;;;8.65;;
26977;SDS011;56314;48.088;11.642;2024-03-07T00:17:39;14.82;;;9.65;;
26977;SDS011;56314;48.088;11.642;2024-03-07T00:20:05;13.85;;;9.52;;
26977;SDS011;56314;48.088;11.642;2024-03-07T00:22:34;13.35;;;9.02;;
26977;SDS011;56314;48.088;11.642;2024-03-07T00:25:03;12.93;;;8.88;;
26977;SDS011;56314;48.088;11.642;2024-03-07T00:27:32;14.15;;;9.63;;
26977;SDS011;56314;48.088;11.642;2024-03-07T00:29:58;13.15;;;8.85;;
26977;SDS011;56314;48.088;11.642;2024-03-07T00:32:24;13.75;;;8.40;;
26977;SDS011;56314;48.088;11.642;2024-03-07T00:34:52;16.50;;;9.60;;
26977;SDS011;56314;48.088;11.642;2024-03-07T00:37:17;15.65;;;10.05;;
26977;SDS011;56314;48.088;11.642;2024-03-07T00:39:43;15.35;;;9.80;;
26977;SDS011;56314;48.088;11.642;2024-03-07T00:42:08;13.57;;;8.93;;
26977;SDS011;56314;48.088;11.642;2024-03-07T00:44:34;13.48;;;9.00;;
26977;SDS011;56314;48.088;11.642;2024-03-07T00:47:00;14.38;;;9.00;;
26977;SDS011;56314;48.088;11.642;2024-03-07T00:49:27;13.18;;;8.73;;
26977;SDS011;56314;48.088;11.642;2024-03-07T00:51:53;12.90;;;9.13;;
26977;SDS011;56314;48.088;11.642;2024-03-07T00:54:19;14.52;;;8.82;;
26977;SDS011;56314;48.088;11.642;2024-03-07T00:56:45;17.10;;;10.00;;
26977;SDS011;56314;48.088;11.642;2024-03-07T00:59:14;16.98;;;9.85;;
26977;SDS011;56314;48.088;11.642;2024-03-07T01:01:40;16.10;;;10.10;;
26977;SDS011;56314;48.088;11.642;2024-03-07T01:04:06;16.88;;;10.15;;
26977;SDS011;56314;48.088;11.642;2024-03-07T01:06:32;15.25;;;9.70;;
26977;SDS011;56314;48.088;11.642;2024-03-07T01:08:58;18.00;;;10.25;;
26977;SDS011;56314;48.088;11.642;2024-03-07T01:11:23;19.88;;;11.65;;
26977;SDS011;56314;48.088;11.642;2024-03-07T01:13:49;17.23;;;10.75;;
26977;SDS011;56314;48.088;11.642;2024-03-07T01:16:14;17.60;;;10.43;;
26977;SDS011;56314;48.088;11.642;2024-03-07T01:18:39;18.02;;;10.82;;
26977;SDS011;56314;48.088;11.642;2024-03-07T01:21:05;17.77;;;10.70;;
26977;SDS011;56314;48.088;11.642;2024-03-07T01:23:31;18.20;;;10.95;;
26977;SDS011;56314;48.088;11.642;2024-03-07T01:25:57;21.13;;;11.07;;
26977;SDS011;56314;48.088;11.642;2024-03-07T01:28:23;21.40;;;11.10;;
26977;SDS011;56314;48.088;11.642;2024-03-07T01:30:50;19.35;;;11.68;;
26977;SDS011;56314;48.088;11.642;2024-03-07T01:33:16;21.17;;;11.65;;
26977;SDS011;56314;48.088;11.642;2024-03-07T01:35:41;21.85;;;12.48;;
26977;SDS011;56314;48.088;11.642;2024-03-07T01:38:07;21.60;;;12.25;;
26977;SDS011;56314;48.088;11.642;2024-03-07T01:40:33;18.17;;;11.13;;
26977;SDS011;56314;48.088;11.642;2024-03-07T01:43:01;22.92;;;10.90;;
26977;SDS011;56314;48.088;11.642;2024-03-07T01:45:26;22.83;;;11.35;;
26977;SDS011;56314;48.088;11.642;2024-03-07T01:47:52;23.05;;;12.95;;
26977;SDS011;56314;48.088;11.642;2024-03-07T01:50:17;21.08;;;12.25;;
26977;SDS011;56314;48.088;11.642;2024-03-07T01:52:43;22.13;;;12.25;;
26977;SDS011;56314;48.088;11.642;2024-03-07T01:55:09;23.80;;;12.70;;
26977;SDS011;56314;48.088;11.642;2024-03-07T01:57:36;26.70;;;12.95;;
26977;SDS011;56314;48.088;11.642;2024-03-07T02:00:03;24.52;;;13.13;;
26977;SDS011;56314;48.088;11.642;2024-03-07T02:02:31;24.77;;;13.20;;
26977;SDS011;56314;48.088;11.642;2024-03-07T02:04:57;29.67;;;13.50;;
26977;SDS011;56314;48.088;11.642;2024-03-07T02:07:23;30.20;;;14.52;;
26977;SDS011;56314;48.088;11.642;2024-03-07T02:09:48;29.23;;;14.20;;
26977;SDS011;56314;48.088;11.642;2024-03-07T02:12:14;29.73;;;14.23;;
26977;SDS011;56314;48.088;11.642;2024-03-07T02:14:39;33.55;;;15.65;;
26977;SDS011;56314;48.088;11.642;2024-03-07T02:17:05;35.55;;;15.32;;
26977;SDS011;56314;48.088;11.642;2024-03-07T02:19:31;33.33;;;14.43;;
26977;SDS011;56314;48.088;11.642;2024-03-07T02:21:57;36.28;;;15.95;;
26977;SDS011;56314;48.088;11.642;2024-03-07T02:24:24;30.17;;;15.70;;
26977;SDS011;56314;48.088;11.642;2024-03-07T02:26:51;34.22;;;15.27;;
26977;SDS011;56314;48.088;11.642;2024-03-07T02:29:17;34.10;;;15.88;;
26977;SDS011;56314;48.088;11.642;2024-03-07T02:31:44;37.42;;;16.40;;
26977;SDS011;56314;48.088;11.642;2024-03-07T02:34:10;35.88;;;17.75;;
26977;SDS011;56314;48.088;11.642;2024-03-07T02:36:36;38.65;;;17.60;;
26977;SDS011;56314;48.088;11.642;2024-03-07T02:39:01;34.53;;;15.98;;
26977;SDS011;56314;48.088;11.642;2024-03-07T02:41:26;31.88;;;15.82;;
26977;SDS011;56314;48.088;11.642;2024-03-07T02:43:52;32.30;;;16.17;;
26977;SDS011;56314;48.088;11.642;2024-03-07T02:46:18;32.78;;;15.88;;
26977;SDS011;56314;48.088;11.642;2024-03-07T02:48:44;35.38;;;16.70;;
26977;SDS011;56314;48.088;11.642;2024-03-07T02:51:10;31.58;;;16.50;;
26977;SDS011;56314;48.088;11.642;2024-03-07T02:53:36;31.65;;;15.55;;
26977;SDS011;56314;48.088;11.642;2024-03-07T02:56:02;35.90;;;15.48;;
26977;SDS011;56314;48.088;11.642;2024-03-07T02:58:29;34.17;;;15.50;;
26977;SDS011;56314;48.088;11.642;2024-03-07T03:00:57;28.27;;;14.30;;
26977;SDS011;56314;48.088;11.642;2024-03-07T03:03:24;32.33;;;15.13;;
26977;SDS011;56314;48.088;11.642;2024-03-07T03:05:50;32.47;;;15.65;;
26977;SDS011;56314;48.088;11.642;2024-03-07T03:08:16;32.85;;;15.98;;
26977;SDS011;56314;48.088;11.642;2024-03-07T03:10:42;33.72;;;16.58;;
26977;SDS011;56314;48.088;11.642;2024-03-07T03:13:09;34.33;;;15.90;;
26977;SDS011;56314;48.088;11.642;2024-03-07T03:15:35;36.25;;;16.65;;
26977;SDS011;56314;48.088;11.642;2024-03-07T03:18:02;31.77;;;15.45;;
26977;SDS011;56314;48.088;11.642;2024-03-07T03:20:28;39.45;;;16.63;;
26977;SDS011;56314;48.088;11.642;2024-03-07T03:23:04;32.65;;;15.07;;
26977;SDS011;56314;48.088;11.642;2024-03-07T03:25:30;32.95;;;14.50;;
26977;SDS011;56314;48.088;11.642;2024-03-07T03:28:00;37.58;;;16.40;;
26977;SDS011;56314;48.088;11.642;2024-03-07T03:30:29;36.10;;;15.75;;
26977;SDS011;56314;48.088;11.642;2024-03-07T03:32:54;37.30;;;16.25;;
26977;SDS011;56314;48.088;11.642;2024-03-07T03:35:20;34.70;;;16.00;;
26977;SDS011;56314;48.088;11.642;2024-03-07T03:37:45;33.45;;;16.38;;
26977;SDS011;56314;48.088;11.642;2024-03-07T03:40:11;33.38;;;15.55;;
26977;SDS011;56314;48.088;11.642;2024-03-07T03:42:41;36.60;;;16.67;;
26977;SDS011;56314;48.088;11.642;2024-03-07T03:45:08;32.97;;;15.55;;
26977;SDS011;56314;48.088;11.642;2024-03-07T03:47:36;37.80;;;17.23;;
26977;SDS011;56314;48.088;11.642;2024-03-07T03:50:03;38.10;;;17.98;;
26977;SDS011;56314;48.088;11.642;2024-03-07T03:52:29;42.75;;;19.38;;
26977;SDS011;56314;48.088;11.642;2024-03-07T03:54:55;47.47;;;22.40;;
26977;SDS011;56314;48.088;11.642;2024-03-07T03:57:21;49.25;;;24.58;;
26977;SDS011;56314;48.088;11.642;2024-03-07T03:59:47;49.10;;;25.48;;
26977;SDS011;56314;48.088;11.642;2024-03-07T04:02:13;55.20;;;25.20;;
26977;SDS011;56314;48.088;11.642;2024-03-07T04:04:39;53.08;;;26.35;;
26977;SDS011;56314;48.088;11.642;2024-03-07T04:07:07;63.78;;;30.55;;
26977;SDS011;56314;48.088;11.642;2024-03-07T04:09:33;67.40;;;30.55;;
26977;SDS011;56314;48.088;11.642;2024-03-07T04:11:58;64.72;;;30.95;;
26977;SDS011;56314;48.088;11.642;2024-03-07T04:14:24;58.90;;;30.20;;
26977;SDS011;56314;48.088;11.642;2024-03-07T04:16:50;64.85;;;31.13;;
26977;SDS011;56314;48.088;11.642;2024-03-07T04:19:16;61.13;;;30.83;;
26977;SDS011;56314;48.088;11.642;2024-03-07T04:21:42;62.65;;;30.23;;
26977;SDS011;56314;48.088;11.642;2024-03-07T04:24:08;65.00;;;31.95;;
26977;SDS011;56314;48.088;11.642;2024-03-07T04:26:34;64.28;;;31.70;;
26977;SDS011;56314;48.088;11.642;2024-03-07T04:28:59;72.40;;;34.35;;
26977;SDS011;56314;48.088;11.642;2024-03-07T04:31:24;64.95;;;32.90;;
26977;SDS011;56314;48.088;11.642;2024-03-07T04:33:50;71.60;;;33.65;;
26977;SDS011;56314;48.088;11.642;2024-03-07T04:36:16;71.80;;;34.30;;
26977;SDS011;56314;48.088;11.642;2024-03-07T04:38:42;62.97;;;30.75;;
26977;SDS011;56314;48.088;11.642;2024-03-07T04:41:10;66.72;;;33.22;;
26977;SDS011;56314;48.088;11.642;2024-03-07T04:43:36;64.03;;;30.88;;
26977;SDS011;56314;48.088;11.642;2024-03-07T04:46:02;68.45;;;35.40;;
26977;SDS011;56314;48.088;11.642;2024-03-07T04:48:27;68.95;;;34.00;;
26977;SDS011;56314;48.088;11.642;2024-03-07T04:50:53;68.95;;;32.63;;
26977;SDS011;56314;48.088;11.642;2024-03-07T04:53:18;69.00;;;33.20;;
26977;SDS011;56314;48.088;11.642;2024-03-07T04:55:43;67.05;;;33.40;;
26977;SDS011;56314;48.088;11.642;2024-03-07T04:58:09;63.60;;;31.38;;
26977;SDS011;56314;48.088;11.642;2024-03-07T05:00:34;69.70;;;33.05;;
26977;SDS011;56314;48.088;11.642;2024-03-07T05:02:59;69.80;;;33.45;;
26977;SDS011;56314;48.088;11.642;2024-03-07T05:05:25;78.38;;;36.42;;
26977;SDS011;56314;48.088;11.642;2024-03-07T05:07:51;68.63;;;33.10;;
26977;SDS011;56314;48.088;11.642;2024-03-07T05:10:17;62.97;;;32.83;;
26977;SDS011;56314;48.088;11.642;2024-03-07T05:12:43;69.57;;;34.03;;
26977;SDS011;56314;48.088;11.642;2024-03-07T05:15:08;67.60;;;32.78;;
26977;SDS011;56314;48.088;11.642;2024-03-07T05:17:37;68.65;;;33.83;;
26977;SDS011;56314;48.088;11.642;2024-03-07T05:20:04;68.60;;;34.33;;
26977;SDS011;56314;48.088;11.642;2024-03-07T05:22:35;70.35;;;35.67;;
26977;SDS011;56314;48.088;11.642;2024-03-07T05:25:15;73.45;;;34.28;;
26977;SDS011;56314;48.088;11.642;2024-03-07T05:27:44;79.20;;;36.67;;
26977;SDS011;56314;48.088;11.642;2024-03-07T05:30:10;71.43;;;34.33;;
26977;SDS011;56314;48.088;11.642;2024-03-07T05:32:38;82.97;;;35.92;;
26977;SDS011;56314;48.088;11.642;2024-03-07T05:35:04;74.28;;;34.05;;
26977;SDS011;56314;48.088;11.642;2024-03-07T05:37:30;69.05;;;33.45;;
26977;SDS011;56314;48.088;11.642;2024-03-07T05:39:56;74.68;;;36.22;;
26977;SDS011;56314;48.088;11.642;2024-03-07T05:42:22;73.45;;;36.28;;
26977;SDS011;56314;48.088;11.642;2024-03-07T05:44:50;73.15;;;34.47;;
26977;SDS011;56314;48.088;11.642;2024-03-07T05:47:15;78.75;;;35.80;;
26977;SDS011;56314;48.088;11.642;2024-03-07T05:49:42;72.35;;;34.00;;
26977;SDS011;56314;48.088;11.642;2024-03-07T05:52:07;67.57;;;33.70;;
26977;SDS011;56314;48.088;11.642;2024-03-07T05:54:33;71.28;;;34.97;;
26977;SDS011;56314;48.088;11.642;2024-03-07T05:56:58;73.88;;;35.25;;
26977;SDS011;56314;48.088;11.642;2024-03-07T05:59:24;76.75;;;35.78;;
26977;SDS011;56314;48.088;11.642;2024-03-07T06:01:50;80.13;;;36.40;;
26977;SDS011;56314;48.088;11.642;2024-03-07T06:04:16;75.05;;;36.60;;
26977;SDS011;56314;48.088;11.642;2024-03-07T06:06:41;79.90;;;37.85;;
26977;SDS011;56314;48.088;11.642;2024-03-07T06:09:07;77.07;;;36.88;;
26977;SDS011;56314;48.088;11.642;2024-03-07T06:11:38;72.97;;;35.90;;
26977;SDS011;56314;48.088;11.642;2024-03-07T06:14:04;72.28;;;34.63;;
26977;SDS011;56314;48.088;11.642;2024-03-07T06:16:37;73.32;;;36.28;;
26977;SDS011;56314;48.088;11.642;2024-03-07T06:19:03;82.03;;;38.88;;
26977;SDS011;56314;48.088;11.642;2024-03-07T06:21:32;72.63;;;35.45;;
26977;SDS011;56314;48.088;11.642;2024-03-07T06:23:58;77.18;;;34.50;;
26977;SDS011;56314;48.088;11.642;2024-03-07T06:26:25;82.20;;;38.03;;
26977;SDS011;56314;48.088;11.642;2024-03-07T06:29:03;76.00;;;36.95;;
26977;SDS011;56314;48.088;11.642;2024-03-07T06:31:32;75.43;;;36.60;;
26977;SDS011;56314;48.088;11.642;2024-03-07T06:33:58;74.45;;;36.72;;
26977;SDS011;56314;48.088;11.642;2024-03-07T06:36:24;74.97;;;35.38;;
26977;SDS011;56314;48.088;11.642;2024-03-07T06:38:50;72.10;;;35.28;;
26977;SDS011;56314;48.088;11.642;2024-03-07T06:41:16;76.05;;;35.95;;
26977;SDS011;56314;48.088;11.642;2024-03-07T06:43:42;73.85;;;36.03;;
26977;SDS011;56314;48.088;11.642;2024-03-07T06:46:09;70.88;;;35.58;;
26977;SDS011;56314;48.088;11.642;2024-03-07T06:48:35;73.72;;;35.13;;
26977;SDS011;56314;48.088;11.642;2024-03-07T06:51:01;72.47;;;36.88;;
26977;SDS011;56314;48.088;11.642;2024-03-07T06:53:26;76.75;;;36.10;;
26977;SDS011;56314;48.088;11.642;2024-03-07T06:55:53;81.50;;;37.38;;
26977;SDS011;56314;48.088;11.642;2024-03-07T06:58:22;73.32;;;34.90;;
26977;SDS011;56314;48.088;11.642;2024-03-07T07:00:48;76.15;;;36.13;;
26977;SDS011;56314;48.088;11.642;2024-03-07T07:03:16;74.45;;;36.08;;
26977;SDS011;56314;48.088;11.642;2024-03-07T07:05:43;72.20;;;37.17;;
26977;SDS011;56314;48.088;11.642;2024-03-07T07:08:09;76.88;;;34.88;;
26977;SDS011;56314;48.088;11.642;2024-03-07T07:10:35;68.60;;;34.40;;
26977;SDS011;56314;48.088;11.642;2024-03-07T07:13:01;74.40;;;34.25;;
26977;SDS011;56314;48.088;11.642;2024-03-07T07:15:29;75.95;;;36.22;;
26977;SDS011;56314;48.088;11.642;2024-03-07T07:17:54;67.20;;;34.88;;
26977;SDS011;56314;48.088;11.642;2024-03-07T07:20:20;74.50;;;35.90;;
26977;SDS011;56314;48.088;11.642;2024-03-07T07:22:46;69.68;;;34.83;;
26977;SDS011;56314;48.088;11.642;2024-03-07T07:25:16;71.55;;;34.60;;
26977;SDS011;56314;48.088;11.642;2024-03-07T07:27:45;69.70;;;33.30;;
26977;SDS011;56314;48.088;11.642;2024-03-07T07:30:12;66.78;;;35.13;;
26977;SDS011;56314;48.088;11.642;2024-03-07T07:32:39;74.63;;;36.55;;
26977;SDS011;56314;48.088;11.642;2024-03-07T07:35:06;76.25;;;36.15;;
26977;SDS011;56314;48.088;11.642;2024-03-07T07:37:34;73.68;;;34.78;;
26977;SDS011;56314;48.088;11.642;2024-03-07T07:40:01;71.10;;;35.60;;
26977;SDS011;56314;48.088;11.642;2024-03-07T07:42:27;74.22;;;36.40;;
26977;SDS011;56314;48.088;11.642;2024-03-07T07:44:53;72.50;;;35.45;;
26977;SDS011;56314;48.088;11.642;2024-03-07T07:47:18;68.60;;;35.15;;
26977;SDS011;56314;48.088;11.642;2024-03-07T07:49:44;70.50;;;34.60;;
26977;SDS011;56314;48.088;11.642;2024-03-07T07:52:09;72.90;;;33.55;;
26977;SDS011;56314;48.088;11.642;2024-03-07T07:54:35;67.30;;;34.53;;
26977;SDS011;56314;48.088;11.642;2024-03-07T07:57:00;74.72;;;35.15;;
26977;SDS011;56314;48.088;11.642;2024-03-07T07:59:26;76.70;;;34.88;;
26977;SDS011;56314;48.088;11.642;2024-03-07T08:01:51;66.68;;;32.33;;
26977;SDS011;56314;48.088;11.642;2024-03-07T08:04:20;75.53;;;33.28;;
26977;SDS011;56314;48.088;11.642;2024-03-07T08:06:46;73.85;;;35.25;;
26977;SDS011;56314;48.088;11.642;2024-03-07T08:09:12;69.32;;;35.47;;
26977;SDS011;56314;48.088;11.642;2024-03-07T08:11:41;68.15;;;34.85;;
26977;SDS011;56314;48.088;11.642;2024-03-07T08:14:07;67.78;;;34.15;;
26977;SDS011;56314;48.088;11.642;2024-03-07T08:16:33;69.07;;;33.58;;
26977;SDS011;56314;48.088;11.642;2024-03-07T08:18:58;70.28;;;34.20;;
26977;SDS011;56314;48.088;11.642;2024-03-07T08:21:24;69.25;;;34.63;;
26977;SDS011;56314;48.088;11.642;2024-03-07T08:23:49;74.28;;;34.80;;
26977;SDS011;56314;48.088;11.642;2024-03-07T08:26:15;79.68;;;34.05;;
26977;SDS011;56314;48.088;11.642;2024-03-07T08:28:43;72.15;;;32.60;;
26977;SDS011;56314;48.088;11.642;2024-03-07T08:31:09;73.75;;;33.42;;
26977;SDS011;56314;48.088;11.642;2024-03-07T08:33:34;62.55;;;31.55;;
26977;SDS011;56314;48.088;11.642;2024-03-07T08:36:00;69.63;;;33.15;;
26977;SDS011;56314;48.088;11.642;2024-03-07T08:38:26;72.38;;;33.88;;
26977;SDS011;56314;48.088;11.642;2024-03-07T08:40:51;69.10;;;33.42;;
26977;SDS011;56314;48.088;11.642;2024-03-07T08:43:17;65.53;;;33.88;;
26977;SDS011;56314;48.088;11.642;2024-03-07T08:45:42;69.57;;;34.35;;
26977;SDS011;56314;48.088;11.642;2024-03-07T08:48:08;69.63;;;33.35;;
26977;SDS011;56314;48.088;11.642;2024-03-07T08:50:38;67.38;;;33.17;;
26977;SDS011;56314;48.088;11.642;2024-03-07T08:53:03;67.55;;;33.88;;
26977;SDS011;56314;48.088;11.642;2024-03-07T08:55:32;67.55;;;32.85;;
26977;SDS011;56314;48.088;11.642;2024-03-07T08:57:57;71.72;;;32.67;;
26977;SDS011;56314;48.088;11.642;2024-03-07T09:00:23;62.92;;;31.17;;
26977;SDS011;56314;48.088;11.642;2024-03-07T09:02:52;67.13;;;32.95;;
26977;SDS011;56314;48.088;11.642;2024-03-07T09:05:20;71.72;;;35.25;;
26977;SDS011;56314;48.088;11.642;2024-03-07T09:07:50;66.68;;;33.92;;
26977;SDS011;56314;48.088;11.642;2024-03-07T09:10:17;67.30;;;32.63;;
26977;SDS011;56314;48.088;11.642;2024-03-07T09:12:43;56.70;;;31.58;;
26977;SDS011;56314;48.088;11.642;2024-03-07T09:15:11;63.40;;;32.72;;
26977;SDS011;56314;48.088;11.642;2024-03-07T09:17:41;68.68;;;32.08;;
26977;SDS011;56314;48.088;11.642;2024-03-07T09:20:07;64.75;;;31.63;;
26977;SDS011;56314;48.088;11.642;2024-03-07T09:22:39;58.40;;;31.58;;
26977;SDS011;56314;48.088;11.642;2024-03-07T09:25:12;62.67;;;31.15;;
26977;SDS011;56314;48.088;11.642;2024-03-07T09:27:38;57.63;;;29.77;;
26977;SDS011;56314;48.088;11.642;2024-03-07T09:30:05;62.80;;;31.52;;
26977;SDS011;56314;48.088;11.642;2024-03-07T09:32:40;60.70;;;30.48;;
26977;SDS011;56314;48.088;11.642;2024-03-07T09:35:08;64.45;;;31.23;;
26977;SDS011;56314;48.088;11.642;2024-03-07T09:37:39;59.38;;;30.23;;
26977;SDS011;56314;48.088;11.642;2024-03-07T09:40:05;62.70;;;31.30;;
26977;SDS011;56314;48.088;11.642;2024-03-07T09:42:31;59.60;;;32.05;;
26977;SDS011;56314;48.088;11.642;2024-03-07T09:44:58;59.53;;;29.63;;
26977;SDS011;56314;48.088;11.642;2024-03-07T09:47:28;59.20;;;29.38;;
26977;SDS011;56314;48.088;11.642;2024-03-07T09:49:54;62.45;;;31.02;;
26977;SDS011;56314;48.088;11.642;2024-03-07T09:52:19;56.00;;;29.02;;
26977;SDS011;56314;48.088;11.642;2024-03-07T09:54:45;54.83;;;28.98;;
26977;SDS011;56314;48.088;11.642;2024-03-07T09:57:11;56.50;;;29.05;;
26977;SDS011;56314;48.088;11.642;2024-03-07T09:59:37;55.88;;;29.60;;
26977;SDS011;56314;48.088;11.642;2024-03-07T10:02:06;58.65;;;30.35;;
26977;SDS011;56314;48.088;11.642;2024-03-07T10:04:48;63.67;;;28.55;;
26977;SDS011;56314;48.088;11.642;2024-03-07T10:07:16;53.75;;;26.88;;
26977;SDS011;56314;48.088;11.642;2024-03-07T10:09:41;55.85;;;28.83;;
26977;SDS011;56314;48.088;11.642;2024-03-07T10:12:07;59.00;;;28.83;;
26977;SDS011;56314;48.088;11.642;2024-03-07T10:14:38;54.55;;;27.50;;
26977;SDS011;56314;48.088;11.642;2024-03-07T10:17:04;54.45;;;26.90;;
26977;SDS011;56314;48.088;11.642;2024-03-07T10:19:29;49.60;;;28.00;;
26977;SDS011;56314;48.088;11.642;2024-03-07T10:21:55;49.92;;;26.05;;
26977;SDS011;56314;48.088;11.642;2024-03-07T10:24:26;42.25;;;23.55;;
26977;SDS011;56314;48.088;11.642;2024-03-07T10:26:52;52.03;;;25.50;;
26977;SDS011;56314;48.088;11.642;2024-03-07T10:29:21;48.60;;;25.77;;
26977;SDS011;56314;48.088;11.642;2024-03-07T10:31:48;48.70;;;23.77;;
26977;SDS011;56314;48.088;11.642;2024-03-07T10:34:14;49.58;;;24.80;;
26977;SDS011;56314;48.088;11.642;2024-03-07T10:36:42;46.30;;;24.92;;
26977;SDS011;56314;48.088;11.642;2024-03-07T10:39:11;46.10;;;24.45;;
26977;SDS011;56314;48.088;11.642;2024-03-07T10:41:44;51.75;;;26.40;;
26977;SDS011;56314;48.088;11.642;2024-03-07T10:44:20;53.80;;;25.75;;
26977;SDS011;56314;48.088;11.642;2024-03-07T10:46:51;47.72;;;25.33;;
26977;SDS011;56314;48.088;11.642;2024-03-07T10:49:18;52.38;;;24.80;;
26977;SDS011;56314;48.088;11.642;2024-03-07T10:51:51;49.20;;;26.27;;
26977;SDS011;56314;48.088;11.642;2024-03-07T10:54:48;45.95;;;24.75;;
26977;SDS011;56314;48.088;11.642;2024-03-07T11:00:21;49.60;;;24.88;;
26977;SDS011;56314;48.088;11.642;2024-03-07T11:03:00;45.28;;;24.85;;
26977;SDS011;56314;48.088;11.642;2024-03-07T11:05:28;50.08;;;25.73;;
26977;SDS011;56314;48.088;11.642;2024-03-07T11:08:00;52.38;;;25.55;;
26977;SDS011;56314;48.088;11.642;2024-03-07T11:10:36;49.03;;;24.60;;
26977;SDS011;56314;48.088;11.642;2024-03-07T11:13:02;47.85;;;24.52;;
26977;SDS011;56314;48.088;11.642;2024-03-07T11:15:29;49.58;;;24.70;;
26977;SDS011;56314;48.088;11.642;2024-03-07T11:17:57;49.70;;;26.25;;
26977;SDS011;56314;48.088;11.642;2024-03-07T11:20:24;44.72;;;23.65;;
26977;SDS011;56314;48.088;11.642;2024-03-07T11:22:51;48.38;;;25.65;;
26977;SDS011;56314;48.088;11.642;2024-03-07T11:25:20;46.33;;;24.17;;
26977;SDS011;56314;48.088;11.642;2024-03-07T11:27:57;43.25;;;23.55;;
26977;SDS011;56314;48.088;11.642;2024-03-07T11:30:24;42.90;;;23.20;;
26977;SDS011;56314;48.088;11.642;2024-03-07T11:32:50;41.70;;;22.88;;
26977;SDS011;56314;48.088;11.642;2024-03-07T11:35:20;41.65;;;22.38;;
26977;SDS011;56314;48.088;11.642;2024-03-07T11:37:57;39.95;;;21.42;;
26977;SDS011;56314;48.088;11.642;2024-03-07T11:42:50;44.67;;;23.55;;
26977;SDS011;56314;48.088;11.642;2024-03-07T11:45:17;40.88;;;23.02;;
26977;SDS011;56314;48.088;11.642;2024-03-07T11:47:57;42.90;;;22.02;;
26977;SDS011;56314;48.088;11.642;2024-03-07T11:50:32;43.30;;;22.58;;
26977;SDS011;56314;48.088;11.642;2024-03-07T11:53:01;42.97;;;21.55;;
26977;SDS011;56314;48.088;11.642;2024-03-07T11:55:30;40.13;;;22.23;;
26977;SDS011;56314;48.088;11.642;2024-03-07T11:58:07;43.03;;;22.20;;
26977;SDS011;56314;48.088;11.642;2024-03-07T12:00:42;50.03;;;23.92;;
26977;SDS011;56314;48.088;11.642;2024-03-07T12:03:12;42.47;;;21.88;;
26977;SDS011;56314;48.088;11.642;2024-03-07T12:05:46;40.30;;;21.73;;
26977;SDS011;56314;48.088;11.642;2024-03-07T12:08:12;42.13;;;21.25;;
26977;SDS011;56314;48.088;11.642;2024-03-07T12:10:38;42.72;;;21.40;;
26977;SDS011;56314;48.088;11.642;2024-03-07T12:13:11;44.85;;;22.35;;
26977;SDS011;56314;48.088;11.642;2024-03-07T12:15:38;43.03;;;21.30;;
26977;SDS011;56314;48.088;11.642;2024-03-07T12:18:04;36.83;;;20.50;;
26977;SDS011;56314;48.088;11.642;2024-03-07T12:20:37;40.67;;;21.77;;
26977;SDS011;56314;48.088;11.642;2024-03-07T12:23:04;37.35;;;20.30;;
26977;SDS011;56314;48.088;11.642;2024-03-07T12:25:33;39.35;;;21.27;;
26977;SDS011;56314;48.088;11.642;2024-03-07T12:28:10;38.53;;;21.33;;
26977;SDS011;56314;48.088;11.642;2024-03-07T12:33:10;40.22;;;22.50;;
26977;SDS011;56314;48.088;11.642;2024-03-07T12:35:39;42.70;;;23.55;;
26977;SDS011;56314;48.088;11.642;2024-03-07T12:38:07;43.65;;;23.80;;
26977;SDS011;56314;48.088;11.642;2024-03-07T12:40:35;42.85;;;22.67;;
26977;SDS011;56314;48.088;11.642;2024-03-07T12:43:02;37.63;;;21.30;;
26977;SDS011;56314;48.088;11.642;2024-03-07T12:45:38;41.90;;;22.42;;
26977;SDS011;56314;48.088;11.642;2024-03-07T12:48:08;43.00;;;22.35;;
26977;SDS011;56314;48.088;11.642;2024-03-07T12:50:39;40.58;;;21.92;;
26977;SDS011;56314;48.088;11.642;2024-03-07T12:53:05;41.88;;;21.65;;
26977;SDS011;56314;48.088;11.642;2024-03-07T12:55:36;42.75;;;21.77;;
26977;SDS011;56314;48.088;11.642;2024-03-07T12:58:08;39.08;;;20.42;;
26977;SDS011;56314;48.088;11.642;2024-03-07T13:00:37;44.90;;;22.15;;
26977;SDS011;56314;48.088;11.642;2024-03-07T13:03:03;41.63;;;21.25;;
26977;SDS011;56314;48.088;11.642;2024-03-07T13:05:29;42.08;;;23.48;;
26977;SDS011;56314;48.088;11.642;2024-03-07T13:07:55;45.80;;;23.48;;
26977;SDS011;56314;48.088;11.642;2024-03-07T13:10:20;43.15;;;22.50;;
26977;SDS011;56314;48.088;11.642;2024-03-07T13:12:46;46.33;;;22.58;;
26977;SDS011;56314;48.088;11.642;2024-03-07T13:15:14;39.40;;;21.42;;
26977;SDS011;56314;48.088;11.642;2024-03-07T13:17:40;44.45;;;21.83;;
26977;SDS011;56314;48.088;11.642;2024-03-07T13:20:08;43.15;;;22.98;;
26977;SDS011;56314;48.088;11.642;2024-03-07T13:22:38;43.83;;;22.17;;
26977;SDS011;56314;48.088;11.642;2024-03-07T13:25:24;43.17;;;23.88;;
26977;SDS011;56314;48.088;11.642;2024-03-07T13:27:51;49.20;;;24.35;;
26977;SDS011;56314;48.088;11.642;2024-03-07T13:30:21;43.90;;;23.48;;
26977;SDS011;56314;48.088;11.642;2024-03-07T13:32:52;46.35;;;24.50;;
26977;SDS011;56314;48.088;11.642;2024-03-07T13:35:21;53.92;;;22.65;;
26977;SDS011;56314;48.088;11.642;2024-03-07T13:37:48;51.13;;;23.02;;
26977;SDS011;56314;48.088;11.642;2024-03-07T13:40:15;48.20;;;24.58;;
26977;SDS011;56314;48.088;11.642;2024-03-07T13:42:57;45.40;;;23.02;;
26977;SDS011;56314;48.088;11.642;2024-03-07T13:45:26;45.03;;;22.80;;
26977;SDS011;56314;48.088;11.642;2024-03-07T13:47:55;47.22;;;23.60;;
26977;SDS011;56314;48.088;11.642;2024-03-07T13:50:22;50.35;;;24.25;;
26977;SDS011;56314;48.088;11.642;2024-03-07T13:52:49;43.85;;;23.25;;
26977;SDS011;56314;48.088;11.642;2024-03-07T13:55:34;43.13;;;22.73;;
26977;SDS011;56314;48.088;11.642;2024-03-07T13:58:21;44.83;;;22.48;;
26977;SDS011;56314;48.088;11.642;2024-03-07T14:09:17;44.33;;;22.00;;
26977;SDS011;56314;48.088;11.642;2024-03-07T14:28:42;43.05;;;22.13;;
26977;SDS011;56314;48.088;11.642;2024-03-07T14:31:13;42.33;;;23.67;;
26977;SDS011;56314;48.088;11.642;2024-03-07T14:33:49;43.75;;;23.50;;
26977;SDS011;56314;48.088;11.642;2024-03-07T14:36:16;45.55;;;23.38;;
26977;SDS011;56314;48.088;11.642;2024-03-07T14:38:54;41.78;;;22.45;;
26977;SDS011;56314;48.088;11.642;2024-03-07T14:44:07;46.28;;;24.70;;
26977;SDS011;56314;48.088;11.642;2024-03-07T14:46:32;42.80;;;22.70;;